createdAt,value
2017-09-06T00:00:55.881Z,3.10
2017-09-06T00:03:24.272Z,3.40
2017-09-06T00:05:52.542Z,2.90
2017-09-06T00:08:20.810Z,3.00
2017-09-06T00:10:49.926Z,2.80
2017-09-06T00:13:18.971Z,2.83
2017-09-06T00:15:48.894Z,3.20
2017-09-06T00:18:18.353Z,2.40
2017-09-06T00:20:47.979Z,3.37
2017-09-06T00:23:16.527Z,2.97
2017-09-06T00:25:44.874Z,2.50
2017-09-06T00:28:13.197Z,3.63
2017-09-06T00:30:41.478Z,2.57
2017-09-06T00:33:09.815Z,2.40
2017-09-06T00:35:38.095Z,2.80
2017-09-06T00:38:07.508Z,2.77
2017-09-06T00:40:35.843Z,2.67
2017-09-06T00:43:04.113Z,2.97
2017-09-06T00:45:32.406Z,3.50
2017-09-06T00:48:01.498Z,4.00
2017-09-06T00:50:30.548Z,2.80
2017-09-06T00:52:58.837Z,3.70
2017-09-06T00:55:28.323Z,3.57
2017-09-06T00:57:57.376Z,3.30
2017-09-06T01:00:26.435Z,3.13
2017-09-06T01:02:56.320Z,7.93
2017-09-06T01:05:24.627Z,3.47
2017-09-06T01:07:52.899Z,3.30
2017-09-06T01:10:23.112Z,3.20
2017-09-06T01:12:51.786Z,3.30
2017-09-06T01:15:20.828Z,3.60
2017-09-06T01:17:49.166Z,3.60
2017-09-06T01:20:17.838Z,3.07
2017-09-06T01:22:46.114Z,3.63
2017-09-06T01:25:14.583Z,2.83
2017-09-06T01:27:44.014Z,3.03
2017-09-06T01:30:13.651Z,2.57
2017-09-06T01:32:42.639Z,2.97
2017-09-06T01:35:10.915Z,3.13
2017-09-06T01:37:41.783Z,4.30
2017-09-06T01:40:11.700Z,2.53
2017-09-06T01:42:39.854Z,3.63
2017-09-06T01:45:08.132Z,3.10
2017-09-06T01:47:36.459Z,2.70
2017-09-06T01:50:04.739Z,3.50
2017-09-06T01:52:33.022Z,3.07
2017-09-06T01:55:01.368Z,3.00
2017-09-06T01:57:30.779Z,3.20
2017-09-06T01:59:59.082Z,2.83
2017-09-06T02:02:27.426Z,4.40
2017-09-06T02:04:55.714Z,5.47
2017-09-06T02:07:24.002Z,2.90
2017-09-06T02:09:52.331Z,3.07
2017-09-06T02:12:22.112Z,3.27
2017-09-06T02:14:50.395Z,3.10
2017-09-06T02:17:20.423Z,4.97
2017-09-06T02:19:49.715Z,3.03
2017-09-06T02:22:18.003Z,2.80
2017-09-06T02:24:46.471Z,3.00
2017-09-06T02:27:15.887Z,2.63
2017-09-06T02:29:44.196Z,2.70
2017-09-06T02:32:12.588Z,2.83
2017-09-06T02:34:40.863Z,2.90
2017-09-06T02:37:09.139Z,2.60
2017-09-06T02:39:37.471Z,2.50
2017-09-06T02:42:05.752Z,15.93
2017-09-06T02:44:35.167Z,2.63
2017-09-06T02:47:03.491Z,2.33
2017-09-06T02:49:31.772Z,3.00
2017-09-06T02:52:00.065Z,3.00
2017-09-06T02:54:28.407Z,3.13
2017-09-06T02:56:57.482Z,3.40
2017-09-06T02:59:27.129Z,3.20
2017-09-06T03:01:56.887Z,3.50
2017-09-06T03:04:25.936Z,2.30
2017-09-06T03:06:54.266Z,2.43
2017-09-06T03:09:22.612Z,2.53
2017-09-06T03:11:50.892Z,2.60
2017-09-06T03:14:19.173Z,2.80
2017-09-06T03:16:48.272Z,2.20
2017-09-06T03:19:17.311Z,2.47
2017-09-06T03:21:45.583Z,5.00
2017-09-06T03:24:15.182Z,2.60
2017-09-06T03:26:43.465Z,2.60
2017-09-06T03:29:13.275Z,3.13
2017-09-06T03:31:41.612Z,2.20
2017-09-06T03:34:09.887Z,2.50
2017-09-06T03:36:39.299Z,4.30
2017-09-06T03:39:08.395Z,2.90
2017-09-06T03:41:37.440Z,2.33
2017-09-06T03:44:05.717Z,5.30
2017-09-06T03:46:34.033Z,2.43
2017-09-06T03:49:03.819Z,2.37
2017-09-06T03:51:32.096Z,3.00
2017-09-06T03:54:00.443Z,5.53
2017-09-06T03:56:28.738Z,2.40
2017-09-06T03:58:57.027Z,2.90
2017-09-06T04:01:27.124Z,4.10
2017-09-06T04:03:55.416Z,2.63
2017-09-06T04:06:24.848Z,2.63
2017-09-06T04:08:53.625Z,2.23
2017-09-06T04:11:23.407Z,2.90
2017-09-06T04:13:53.063Z,2.77
2017-09-06T04:16:21.642Z,4.70
2017-09-06T04:18:49.914Z,5.03
2017-09-06T04:21:19.112Z,2.83
2017-09-06T04:23:47.658Z,4.80
2017-09-06T04:26:16.746Z,2.53
2017-09-06T04:28:45.426Z,2.97
2017-09-06T04:31:13.773Z,3.07
2017-09-06T04:33:42.045Z,3.33
2017-09-06T04:36:10.323Z,3.00
2017-09-06T04:38:38.651Z,4.10
2017-09-06T04:41:06.927Z,2.83
2017-09-06T04:43:35.208Z,3.87
2017-09-06T04:46:04.903Z,3.60
2017-09-06T04:48:33.216Z,3.63
2017-09-06T04:51:03.012Z,3.40
2017-09-06T04:53:31.362Z,2.87
2017-09-06T04:55:59.647Z,3.70
2017-09-06T04:58:27.950Z,3.93
2017-09-06T05:00:57.651Z,4.33
2017-09-06T05:03:26.211Z,4.80
2017-09-06T05:05:55.896Z,4.97
2017-09-06T05:08:25.656Z,5.53
2017-09-06T05:10:54.163Z,6.50
2017-09-06T05:13:23.618Z,5.13
2017-09-06T05:15:51.951Z,6.13
2017-09-06T05:18:20.227Z,4.80
2017-09-06T05:20:48.505Z,6.13
2017-09-06T05:23:16.830Z,6.30
2017-09-06T05:25:45.131Z,7.43
2017-09-06T05:28:14.552Z,9.73
2017-09-06T05:30:42.908Z,8.77
2017-09-06T05:33:11.200Z,11.13
2017-09-06T05:35:39.491Z,11.13
2017-09-06T05:38:08.051Z,12.87
2017-09-06T05:40:37.847Z,9.80
2017-09-06T05:43:06.894Z,11.80
2017-09-06T05:45:36.368Z,11.93
2017-09-06T05:48:05.043Z,13.57
2017-09-06T05:50:33.341Z,10.50
2017-09-06T05:53:01.679Z,11.07
2017-09-06T05:55:29.970Z,10.83
2017-09-06T05:57:58.266Z,11.30
2017-09-06T06:00:26.638Z,11.83
2017-09-06T06:02:55.752Z,10.97
2017-09-06T06:05:24.060Z,12.40
2017-09-06T06:07:52.495Z,13.07
2017-09-06T06:10:21.180Z,12.70
2017-09-06T06:12:50.590Z,11.97
2017-09-06T06:15:18.938Z,13.10
2017-09-06T06:17:47.236Z,11.57
2017-09-06T06:20:15.519Z,12.83
2017-09-06T06:22:46.551Z,11.97
2017-09-06T06:25:14.728Z,10.40
2017-09-06T06:27:44.158Z,10.10
2017-09-06T06:30:12.924Z,11.80
2017-09-06T06:32:41.210Z,9.00
2017-09-06T06:35:09.479Z,9.33
2017-09-06T06:37:37.967Z,11.63
2017-09-06T06:40:07.395Z,14.83
2017-09-06T06:42:35.676Z,10.80
2017-09-06T06:45:03.998Z,11.70
2017-09-06T06:47:32.312Z,17.70
2017-09-06T06:50:01.399Z,24.07
2017-09-06T06:52:30.898Z,29.80
2017-09-06T06:55:00.703Z,35.10
2017-09-06T06:57:29.019Z,24.97
2017-09-06T06:59:57.377Z,29.90
2017-09-06T07:02:27.080Z,34.37
2017-09-06T07:04:55.665Z,26.00
2017-09-06T07:07:24.812Z,25.40
2017-09-06T07:09:53.103Z,16.40
2017-09-06T07:12:22.898Z,18.13
2017-09-06T07:14:51.346Z,17.37
2017-09-06T07:17:19.632Z,11.63
2017-09-06T07:19:47.925Z,7.43
2017-09-06T07:22:16.250Z,6.10
2017-09-06T07:24:45.295Z,4.93
2017-09-06T07:27:13.581Z,5.40
2017-09-06T07:29:44.206Z,6.50
2017-09-06T07:32:12.360Z,7.10
2017-09-06T07:34:40.635Z,10.20
2017-09-06T07:37:08.965Z,7.50
2017-09-06T07:39:38.751Z,10.03
2017-09-06T07:42:07.043Z,10.60
2017-09-06T07:44:35.395Z,15.50
2017-09-06T07:47:05.679Z,13.33
2017-09-06T07:49:34.726Z,12.67
2017-09-06T07:52:03.856Z,11.80
2017-09-06T07:54:32.927Z,13.83
2017-09-06T07:57:01.216Z,13.53
2017-09-06T07:59:29.910Z,12.20
2017-09-06T08:01:59.358Z,10.53
2017-09-06T08:04:27.643Z,7.53
2017-09-06T08:07:01.679Z,7.13
2017-09-06T08:09:29.986Z,12.07
2017-09-06T08:11:58.289Z,11.07
2017-09-06T08:14:26.635Z,8.60
2017-09-06T08:16:56.064Z,7.50
2017-09-06T08:19:24.370Z,11.30
2017-09-06T08:21:52.732Z,15.23
2017-09-06T08:24:21.012Z,9.60
2017-09-06T08:26:49.287Z,6.93
2017-09-06T08:29:18.379Z,11.23
2017-09-06T08:31:46.674Z,7.03
2017-09-06T08:34:15.014Z,7.23
2017-09-06T08:36:44.836Z,6.53
2017-09-06T08:39:13.119Z,6.43
2017-09-06T08:41:41.386Z,9.10
2017-09-06T08:44:11.054Z,9.37
2017-09-06T08:46:39.203Z,5.83
2017-09-06T08:49:07.476Z,7.80
2017-09-06T08:51:35.804Z,10.67
2017-09-06T08:54:04.083Z,10.53
2017-09-06T08:56:32.365Z,6.30
2017-09-06T08:59:02.210Z,10.80
2017-09-06T09:01:31.840Z,7.97
2017-09-06T09:04:00.763Z,4.93
2017-09-06T09:06:29.087Z,4.70
2017-09-06T09:08:58.140Z,6.90
2017-09-06T09:11:26.438Z,7.40
2017-09-06T09:13:55.555Z,6.50
2017-09-06T09:16:24.606Z,6.70
2017-09-06T09:18:52.884Z,5.87
2017-09-06T09:21:21.338Z,11.07
2017-09-06T09:23:50.750Z,5.93
2017-09-06T09:26:19.419Z,6.97
2017-09-06T09:28:48.911Z,6.93
2017-09-06T09:31:17.188Z,2.60
2017-09-06T09:33:45.479Z,11.27
2017-09-06T09:36:15.330Z,6.53
2017-09-06T09:38:43.885Z,4.07
2017-09-06T09:41:12.153Z,3.83
2017-09-06T09:43:40.495Z,8.83
2017-09-06T09:46:08.771Z,5.27
2017-09-06T09:48:38.398Z,4.57
2017-09-06T09:51:07.011Z,4.43
2017-09-06T09:53:36.060Z,4.93
2017-09-06T09:56:04.335Z,6.80
2017-09-06T09:58:32.795Z,5.97
2017-09-06T10:01:02.585Z,6.03
2017-09-06T10:03:30.860Z,3.07
2017-09-06T10:05:59.198Z,8.10
2017-09-06T10:08:27.494Z,6.23
2017-09-06T10:10:55.795Z,5.27
2017-09-06T10:13:25.529Z,7.07
2017-09-06T10:15:53.671Z,5.90
2017-09-06T10:18:21.971Z,3.57
2017-09-06T10:20:50.290Z,4.83
2017-09-06T10:23:20.071Z,4.97
2017-09-06T10:25:48.343Z,7.20
2017-09-06T10:28:16.664Z,5.60
2017-09-06T10:30:45.716Z,12.07
2017-09-06T10:33:14.781Z,4.67
2017-09-06T10:35:43.119Z,8.03
2017-09-06T10:38:12.160Z,4.60
2017-09-06T10:40:41.790Z,7.37
2017-09-06T10:43:10.522Z,4.23
2017-09-06T10:45:38.797Z,4.73
2017-09-06T10:48:07.082Z,10.57
2017-09-06T10:50:36.539Z,4.23
2017-09-06T10:53:04.812Z,15.10
2017-09-06T10:55:33.082Z,7.57
2017-09-06T10:58:01.575Z,6.00
2017-09-06T11:00:29.875Z,6.07
2017-09-06T11:02:58.174Z,7.70
2017-09-06T11:05:28.180Z,12.83
2017-09-06T11:07:57.849Z,2.93
2017-09-06T11:10:26.404Z,4.57
2017-09-06T11:12:54.756Z,3.33
2017-09-06T11:15:23.024Z,8.03
2017-09-06T11:17:52.075Z,5.83
2017-09-06T11:20:20.404Z,4.30
2017-09-06T11:22:50.033Z,7.17
2017-09-06T11:25:18.182Z,3.43
2017-09-06T11:27:46.527Z,3.60
2017-09-06T11:30:14.812Z,4.47
2017-09-06T11:32:44.610Z,2.80
2017-09-06T11:35:12.959Z,3.60
2017-09-06T11:37:41.247Z,5.07
2017-09-06T11:40:10.469Z,4.43
2017-09-06T11:42:39.566Z,3.17
2017-09-06T11:45:07.839Z,3.60
2017-09-06T11:47:36.111Z,4.97
2017-09-06T11:50:04.431Z,4.03
2017-09-06T11:52:34.206Z,4.13
2017-09-06T11:55:02.487Z,5.70
2017-09-06T11:57:30.808Z,11.57
2017-09-06T11:59:59.876Z,11.53
2017-09-06T12:02:28.181Z,10.70
2017-09-06T12:04:58.055Z,7.40
2017-09-06T12:07:26.378Z,7.23
2017-09-06T12:09:54.666Z,7.63
2017-09-06T12:12:23.122Z,4.93
2017-09-06T12:14:51.412Z,2.27
2017-09-06T12:17:21.039Z,6.83
2017-09-06T12:19:49.250Z,8.00
2017-09-06T12:22:17.522Z,4.73
2017-09-06T12:24:45.798Z,3.13
2017-09-06T12:27:14.545Z,6.73
2017-09-06T12:29:43.970Z,7.57
2017-09-06T12:32:13.640Z,4.30
2017-09-06T12:34:42.232Z,3.80
2017-09-06T12:37:10.504Z,4.03
2017-09-06T12:39:39.542Z,10.57
2017-09-06T12:42:09.226Z,5.90
2017-09-06T12:44:37.770Z,6.67
2017-09-06T12:47:06.044Z,4.47
2017-09-06T12:49:34.379Z,6.00
2017-09-06T12:52:02.659Z,6.77
2017-09-06T12:54:32.079Z,7.40
2017-09-06T12:57:00.427Z,8.27
2017-09-06T12:59:28.714Z,11.43
2017-09-06T13:01:57.031Z,12.17
2017-09-06T13:04:25.408Z,18.60
2017-09-06T13:06:53.720Z,8.10
2017-09-06T13:09:23.342Z,6.17
2017-09-06T13:11:51.939Z,6.50
2017-09-06T13:14:21.571Z,12.47
2017-09-06T13:16:50.132Z,23.43
2017-09-06T13:19:19.822Z,20.47
2017-09-06T13:21:49.499Z,19.40
2017-09-06T13:24:17.779Z,17.30
2017-09-06T13:26:46.116Z,10.50
2017-09-06T13:29:15.900Z,10.20
2017-09-06T13:31:44.188Z,7.30
2017-09-06T13:34:12.928Z,9.40
2017-09-06T13:36:41.971Z,17.20
2017-09-06T13:39:10.251Z,8.17
2017-09-06T13:41:39.443Z,7.57
2017-09-06T13:44:08.858Z,7.37
2017-09-06T13:46:37.135Z,10.73
2017-09-06T13:49:05.460Z,13.70
2017-09-06T13:51:35.255Z,17.00
2017-09-06T13:54:03.564Z,11.97
2017-09-06T13:56:33.308Z,10.93
2017-09-06T13:59:02.838Z,13.87
2017-09-06T14:01:31.427Z,6.57
2017-09-06T14:04:00.857Z,21.10
2017-09-06T14:06:29.564Z,29.63
2017-09-06T14:08:57.877Z,20.33
2017-09-06T14:11:27.588Z,14.63
2017-09-06T14:13:55.794Z,22.93
2017-09-06T14:16:24.087Z,42.73
2017-09-06T14:18:52.430Z,25.33
2017-09-06T14:21:20.711Z,21.53
2017-09-06T14:23:48.994Z,18.47
2017-09-06T14:26:18.839Z,17.13
2017-09-06T14:28:47.115Z,17.07
2017-09-06T14:31:15.395Z,15.90
2017-09-06T14:33:44.104Z,17.50
2017-09-06T14:36:13.547Z,17.40
2017-09-06T14:38:43.230Z,14.47
2017-09-06T14:41:12.199Z,11.07
2017-09-06T14:43:41.251Z,12.27
2017-09-06T14:46:09.603Z,11.00
2017-09-06T14:48:39.439Z,10.97
2017-09-06T14:51:07.714Z,11.50
2017-09-06T14:53:35.991Z,13.80
2017-09-06T14:56:04.318Z,12.97
2017-09-06T14:58:32.604Z,15.07
2017-09-06T15:01:00.887Z,18.30
2017-09-06T15:03:30.383Z,12.90
2017-09-06T15:06:00.057Z,12.00
2017-09-06T15:08:29.353Z,10.20
2017-09-06T15:10:59.066Z,10.30
2017-09-06T15:13:28.586Z,17.10
2017-09-06T15:15:57.140Z,12.87
2017-09-06T15:18:25.811Z,10.03
2017-09-06T15:20:55.456Z,12.03
2017-09-06T15:23:24.003Z,18.13
2017-09-06T15:25:52.611Z,12.20
2017-09-06T15:28:21.292Z,14.07
2017-09-06T15:30:49.576Z,8.93
2017-09-06T15:33:17.923Z,16.73
2017-09-06T15:35:46.208Z,11.40
2017-09-06T15:38:15.647Z,18.00
2017-09-06T15:40:44.007Z,13.90
2017-09-06T15:43:12.297Z,10.90
2017-09-06T15:45:40.575Z,15.83
2017-09-06T15:48:08.956Z,15.00
2017-09-06T15:50:37.239Z,11.27
2017-09-06T15:53:06.659Z,19.87
2017-09-06T15:55:35.005Z,15.00
2017-09-06T15:58:03.288Z,18.27
2017-09-06T16:00:31.572Z,14.47
2017-09-06T16:03:01.554Z,15.47
2017-09-06T16:05:30.117Z,10.40
2017-09-06T16:07:59.780Z,9.40
2017-09-06T16:10:29.623Z,12.77
2017-09-06T16:12:57.934Z,14.87
2017-09-06T16:15:26.243Z,13.77
2017-09-06T16:17:55.775Z,30.73
2017-09-06T16:20:24.061Z,16.93
2017-09-06T16:22:52.363Z,19.23
2017-09-06T16:25:20.691Z,14.10
2017-09-06T16:27:50.103Z,13.03
2017-09-06T16:30:19.742Z,19.23
2017-09-06T16:32:48.709Z,10.30
2017-09-06T16:35:16.993Z,12.03
2017-09-06T16:37:45.295Z,14.73
2017-09-06T16:40:15.495Z,15.60
2017-09-06T16:42:45.261Z,10.97
2017-09-06T16:45:13.559Z,14.13
2017-09-06T16:47:41.939Z,20.10
2017-09-06T16:50:11.051Z,15.70
2017-09-06T16:52:40.843Z,15.17
2017-09-06T16:55:09.460Z,13.03
2017-09-06T16:57:39.239Z,16.13
2017-09-06T17:00:07.531Z,13.67
2017-09-06T17:02:35.871Z,12.97
2017-09-06T17:05:04.147Z,12.77
2017-09-06T17:07:33.568Z,21.63
2017-09-06T17:10:01.915Z,10.03
2017-09-06T17:12:30.211Z,12.53
2017-09-06T17:14:58.516Z,14.27
2017-09-06T17:17:28.749Z,8.47
2017-09-06T17:19:56.948Z,6.53
2017-09-06T17:22:25.243Z,15.60
2017-09-06T17:24:55.061Z,13.17
2017-09-06T17:27:23.732Z,15.20
2017-09-06T17:29:52.784Z,14.20
2017-09-06T17:32:21.559Z,14.30
2017-09-06T17:34:50.982Z,15.57
2017-09-06T17:37:19.264Z,21.30
2017-09-06T17:39:47.940Z,15.10
2017-09-06T17:42:17.351Z,10.27
2017-09-06T17:44:45.646Z,15.20
2017-09-06T17:47:14.021Z,14.93
2017-09-06T17:49:42.715Z,12.37
2017-09-06T17:52:11.782Z,14.83
2017-09-06T17:54:40.139Z,12.73
2017-09-06T17:57:08.410Z,12.73
2017-09-06T17:59:38.037Z,15.03
2017-09-06T18:02:07.018Z,15.27
2017-09-06T18:04:35.303Z,11.50
2017-09-06T18:07:04.334Z,12.93
2017-09-06T18:09:32.922Z,14.43
2017-09-06T18:12:01.972Z,13.10
2017-09-06T18:14:30.667Z,12.57
2017-09-06T18:17:00.724Z,16.77
2017-09-06T18:19:29.710Z,13.50
2017-09-06T18:21:59.141Z,13.43
2017-09-06T18:24:28.163Z,19.93
2017-09-06T18:26:56.459Z,9.13
2017-09-06T18:29:25.217Z,13.67
2017-09-06T18:31:55.291Z,15.50
2017-09-06T18:34:24.490Z,13.13
2017-09-06T18:36:52.767Z,13.10
2017-09-06T18:39:22.231Z,10.97
2017-09-06T18:41:51.866Z,15.87
2017-09-06T18:44:20.076Z,11.80
2017-09-06T18:46:49.171Z,15.50
2017-09-06T18:49:18.291Z,13.60
2017-09-06T18:51:46.579Z,15.57
2017-09-06T18:54:16.761Z,19.77
2017-09-06T18:56:45.053Z,15.00
2017-09-06T18:59:14.854Z,11.20
2017-09-06T19:01:43.222Z,15.03
2017-09-06T19:04:13.020Z,13.47
2017-09-06T19:06:41.322Z,10.93
2017-09-06T19:09:09.662Z,14.50
2017-09-06T19:11:37.947Z,11.97
2017-09-06T19:14:06.231Z,20.20
2017-09-06T19:16:34.563Z,8.17
2017-09-06T19:19:02.840Z,21.60
2017-09-06T19:21:32.255Z,20.03
2017-09-06T19:24:02.258Z,15.63
2017-09-06T19:26:30.839Z,13.83
2017-09-06T19:28:59.897Z,16.50
2017-09-06T19:31:28.240Z,19.37
2017-09-06T19:33:57.341Z,11.00
2017-09-06T19:36:26.419Z,17.23
2017-09-06T19:38:55.232Z,12.73
2017-09-06T19:41:25.702Z,15.47
2017-09-06T19:43:54.815Z,13.50
2017-09-06T19:46:24.936Z,18.40
2017-09-06T19:48:53.148Z,14.57
2017-09-06T19:51:21.860Z,18.30
2017-09-06T19:53:51.312Z,17.17
2017-09-06T19:56:19.656Z,22.63
2017-09-06T19:58:47.931Z,17.03
2017-09-06T20:01:17.810Z,16.77
2017-09-06T20:03:46.087Z,11.20
2017-09-06T20:06:14.420Z,10.33
2017-09-06T20:08:44.729Z,11.37
2017-09-06T20:11:12.896Z,16.57
2017-09-06T20:13:41.992Z,11.53
2017-09-06T20:16:10.357Z,12.43
2017-09-06T20:18:40.135Z,9.87
2017-09-06T20:21:08.457Z,15.57
2017-09-06T20:23:36.800Z,16.80
2017-09-06T20:26:05.079Z,10.43
2017-09-06T20:28:33.401Z,16.07
2017-09-06T20:31:01.723Z,16.57
2017-09-06T20:33:30.026Z,25.67
2017-09-06T20:35:59.101Z,11.97
2017-09-06T20:38:27.436Z,13.87
2017-09-06T20:40:55.738Z,15.87
2017-09-06T20:43:24.022Z,17.23
2017-09-06T20:45:52.375Z,19.30
2017-09-06T20:48:20.651Z,15.90
2017-09-06T20:50:49.690Z,13.50
2017-09-06T20:53:18.802Z,16.53
2017-09-06T20:55:47.848Z,15.90
2017-09-06T20:58:17.003Z,11.97
2017-09-06T21:00:46.104Z,11.93
2017-09-06T21:03:14.415Z,13.17
2017-09-06T21:05:42.683Z,13.03
2017-09-06T21:08:11.016Z,9.60
2017-09-06T21:10:40.664Z,11.40
2017-09-06T21:13:08.809Z,15.53
2017-09-06T21:15:37.127Z,15.30
2017-09-06T21:18:05.409Z,15.33
2017-09-06T21:20:34.083Z,16.70
2017-09-06T21:23:03.556Z,11.93
2017-09-06T21:25:31.830Z,17.40
2017-09-06T21:28:00.125Z,14.03
2017-09-06T21:30:28.484Z,14.50
2017-09-06T21:32:57.543Z,12.60
2017-09-06T21:35:26.607Z,14.83
2017-09-06T21:37:55.610Z,15.23
2017-09-06T21:40:25.047Z,14.43
2017-09-06T21:42:54.090Z,14.93
2017-09-06T21:45:22.446Z,14.23
2017-09-06T21:47:52.077Z,13.63
2017-09-06T21:50:20.231Z,15.80
2017-09-06T21:52:48.575Z,18.03
2017-09-06T21:55:16.846Z,17.43
2017-09-06T21:57:45.128Z,13.43
2017-09-06T22:00:13.499Z,15.10
2017-09-06T22:02:42.166Z,14.90
2017-09-06T22:05:11.574Z,13.10
2017-09-06T22:07:39.927Z,12.57
2017-09-06T22:10:08.206Z,15.00
2017-09-06T22:12:37.838Z,15.30
2017-09-06T22:15:06.455Z,21.77
2017-09-06T22:17:34.728Z,12.30
2017-09-06T22:20:03.770Z,20.17
2017-09-06T22:22:32.099Z,19.40
2017-09-06T22:25:00.384Z,20.13
2017-09-06T22:27:30.179Z,13.93
2017-09-06T22:29:58.792Z,12.97
2017-09-06T22:32:27.079Z,13.20
2017-09-06T22:34:56.735Z,17.37
2017-09-06T22:37:24.997Z,18.47
2017-09-06T22:39:53.272Z,11.30
2017-09-06T22:42:21.546Z,13.00
2017-09-06T22:44:51.375Z,15.00
2017-09-06T22:47:19.659Z,11.27
2017-09-06T22:49:47.942Z,15.83
2017-09-06T22:52:16.272Z,7.93
2017-09-06T22:54:45.325Z,10.17
2017-09-06T22:57:14.394Z,12.80
2017-09-06T22:59:43.780Z,11.07
2017-09-06T23:02:12.824Z,13.70
2017-09-06T23:04:41.863Z,7.57
2017-09-06T23:07:10.226Z,15.90
2017-09-06T23:09:38.507Z,10.80
2017-09-06T23:12:08.295Z,11.40
2017-09-06T23:14:36.618Z,15.03
2017-09-06T23:17:04.903Z,14.87
2017-09-06T23:19:33.191Z,12.00
2017-09-06T23:22:01.512Z,13.23
2017-09-06T23:24:30.931Z,19.10
2017-09-06T23:26:59.211Z,15.83
2017-09-06T23:29:27.558Z,19.03
2017-09-06T23:31:55.866Z,18.27
2017-09-06T23:34:25.506Z,17.93
2017-09-06T23:36:54.229Z,17.93
2017-09-06T23:39:23.274Z,16.63
2017-09-06T23:41:52.323Z,18.50
2017-09-06T23:44:21.679Z,12.67
2017-09-06T23:46:49.972Z,13.37
2017-09-06T23:49:18.249Z,14.63
2017-09-06T23:51:46.583Z,17.33
2017-09-06T23:54:16.024Z,20.53
2017-09-06T23:56:44.332Z,13.87
2017-09-06T23:59:14.029Z,15.43
